EDDG/FMO METAR and TAF weather

Enter ICAO airport designator
Station Type Date Time Source
EDDG METAR 2020/07/05 16:20 UTC NOAA

EDDG 051620Z 26015KT 9999 SCT040 22/15 Q1009 TEMPO 25015G25KT


Station Type Date Time Source
EDDG Decoded METAR 2020/07/05 16:20 UTC NOAA

Muenster / Osnabrueck, Germany (EDDG) 52-08N 007-42E 53M
Jul 05, 2020 - 12:20 PM EDT / 2020.07.05 1620 UTC
Wind: from the W (260 degrees) at 17 MPH (15 KT):0
Visibility: greater than 7 mile(s):0
Sky conditions: partly cloudy
Temperature: 71 F (22 C)
Dew Point: 59 F (15 C)
Relative Humidity: 64%
Pressure (altimeter): 29.80 in. Hg (1009 hPa)
ob: EDDG 051620Z 26015KT 9999 SCT040 22/15 Q1009 TEMPO 25015G25KT
cycle: 16

Station Type Date Time Source
EDDG TAF 2020/07/05 12:27 UTC NOAA

TAF EDDG 051100Z 0512/0612 24015G25KT 9999 SCT015 BKN020
TEMPO 0512/0517 24020G35KT
TEMPO 0512/0515 BKN012 PROB30
TEMPO 0512/0514 3000 -DZRA BR BKN008
BECMG 0517/0520 23011KT
BECMG 0605/0608 25015G25KT
TEMPO 0608/0612 26020G35KT PROB30
TEMPO 0610/0612 SHRA BKN020CB

Example: see airport list